Time;durP1;ratioP1;P1;durP2;ratioP2;P2;SDS_P1;SDS_P2;PMS_P1;PMS_P2;Temp;Humidity;BMP_temperature;BMP_pressure;BME280_temperature;BME280_humidity;BME280_pressure;Samples;Min_cycle;Max_cycle;Signal;HPM_P1;HPM_P2
2021/12/22 00:00:21;;;;;;;34.88;17.65;;;-3.60;99.90;;;;;;4979196;28;20375;-80
2021/12/22 00:02:48;;;;;;;28.83;17.17;;;-3.70;99.90;;;;;;4996599;28;20031;-78
2021/12/22 00:05:24;;;;;;;32.88;17.75;;;-3.50;99.90;;;;;;4960337;28;20333;-78
2021/12/22 00:07:50;;;;;;;33.10;17.80;;;-3.30;99.90;;;;;;4961361;28;20034;-78
2021/12/22 00:10:18;;;;;;;32.35;16.92;;;-3.30;99.90;;;;;;4961226;29;20031;-81
2021/12/22 00:12:44;;;;;;;31.48;18.27;;;-3.30;99.90;;;;;;4979161;28;20090;-78
2021/12/22 00:15:10;;;;;;;28.05;17.25;;;-3.40;99.90;;;;;;4980341;28;20209;-77
2021/12/22 00:17:37;;;;;;;30.88;16.85;;;-3.40;99.90;;;;;;4963689;28;20093;-76
2021/12/22 00:20:04;;;;;;;33.33;17.13;;;-3.60;99.90;;;;;;4981002;28;20030;-77
2021/12/22 00:22:30;;;;;;;30.97;17.27;;;-3.60;99.90;;;;;;4979746;28;20264;-77
2021/12/22 00:24:56;;;;;;;32.78;17.92;;;-3.40;99.90;;;;;;4996516;28;20101;-77
2021/12/22 00:27:22;;;;;;;33.90;17.52;;;-3.40;99.90;;;;;;4980874;28;20022;-80
2021/12/22 00:29:50;;;;;;;28.58;17.00;;;-3.50;99.90;;;;;;4964045;28;20089;-79
2021/12/22 00:32:17;;;;;;;30.45;16.15;;;-3.50;99.90;;;;;;4979695;28;20039;-81
2021/12/22 00:34:49;;;;;;;32.38;16.65;;;-3.50;99.90;;;;;;4964074;28;20186;-78
2021/12/22 00:37:18;;;;;;;32.97;17.95;;;-3.40;99.90;;;;;;4980935;28;20043;-78
2021/12/22 00:39:44;;;;;;;30.52;16.70;;;-3.40;99.90;;;;;;4980918;28;20295;-79
2021/12/22 00:42:12;;;;;;;31.90;16.60;;;-3.40;99.90;;;;;;4963220;28;20034;-79
2021/12/22 00:44:39;;;;;;;30.50;16.90;;;-3.50;99.90;;;;;;4980696;28;20292;-78
2021/12/22 00:47:05;;;;;;;28.52;15.35;;;-3.60;99.90;;;;;;4980301;28;20046;-78
2021/12/22 00:49:30;;;;;;;30.02;16.45;;;-3.60;99.90;;;;;;4980564;28;20069;-78
2021/12/22 00:51:56;;;;;;;31.33;17.40;;;-3.70;99.90;;;;;;4947664;28;20026;-79
2021/12/22 00:54:22;;;;;;;29.42;17.13;;;-3.70;99.90;;;;;;4980399;28;20156;-78
2021/12/22 00:56:48;;;;;;;27.15;16.38;;;-3.50;99.90;;;;;;4980795;28;20099;-78
2021/12/22 00:59:16;;;;;;;28.95;16.60;;;-3.60;99.90;;;;;;4980833;28;20034;-78
2021/12/22 01:01:42;;;;;;;31.85;17.85;;;-3.80;99.90;;;;;;5023989;28;20293;-77
2021/12/22 01:04:08;;;;;;;30.77;16.58;;;-3.90;99.90;;;;;;4993971;28;20033;-77
2021/12/22 01:06:35;;;;;;;31.50;16.67;;;-3.80;99.90;;;;;;4960819;29;20073;-79
2021/12/22 01:09:02;;;;;;;30.65;16.73;;;-3.80;99.90;;;;;;4961434;28;20218;-77
2021/12/22 01:11:28;;;;;;;29.48;15.95;;;-3.70;99.90;;;;;;4959400;28;20039;-77
2021/12/22 01:13:54;;;;;;;28.08;15.18;;;-3.70;99.90;;;;;;4961089;28;20039;-77
2021/12/22 01:16:20;;;;;;;28.42;15.45;;;-3.70;99.90;;;;;;4960538;28;20047;-78
2021/12/22 01:18:46;;;;;;;26.95;15.63;;;-3.80;99.90;;;;;;4962701;28;20075;-78
2021/12/22 01:21:48;;;;;;;28.02;16.35;;;-3.80;99.90;;;;;;4962603;28;20126;-77
2021/12/22 01:24:29;;;;;;;32.88;15.05;;;-3.70;99.90;;;;;;4966430;28;20037;-77
2021/12/22 01:27:03;;;;;;;29.75;15.77;;;-3.80;99.90;;;;;;4966843;28;20030;-78
2021/12/22 01:29:31;;;;;;;30.92;17.05;;;-3.60;99.90;;;;;;4983332;28;20035;-78
2021/12/22 01:31:57;;;;;;;31.60;17.23;;;-3.70;99.90;;;;;;4983216;28;20124;-77
2021/12/22 01:34:25;;;;;;;34.78;17.08;;;-3.80;99.90;;;;;;4966084;28;20023;-77
2021/12/22 01:36:51;;;;;;;35.72;17.02;;;-3.90;99.90;;;;;;4983690;28;20065;-79
2021/12/22 01:39:17;;;;;;;31.45;16.23;;;-3.90;99.90;;;;;;4983864;28;20106;-77
2021/12/22 01:41:43;;;;;;;31.45;16.58;;;-4.00;99.90;;;;;;4982191;28;20038;-77
2021/12/22 01:44:10;;;;;;;31.95;17.40;;;-4.00;99.90;;;;;;4986192;28;20026;-77
2021/12/22 01:49:15;;;;;;;40.20;19.50;;;-4.00;99.90;;;;;;4983666;28;20038;-78
2021/12/22 01:51:44;;;;;;;41.35;19.40;;;-4.00;99.90;;;;;;4985484;28;20034;-76
2021/12/22 01:54:18;;;;;;;37.85;18.77;;;-4.00;99.90;;;;;;4957050;28;20007;-77
2021/12/22 01:56:45;;;;;;;34.63;17.08;;;-4.10;99.90;;;;;;4994451;28;20045;-75
2021/12/22 01:59:11;;;;;;;33.92;18.73;;;-4.10;99.90;;;;;;4992105;28;20038;-76
2021/12/22 02:01:38;;;;;;;38.08;18.13;;;-4.20;99.90;;;;;;4970741;28;20333;-77
2021/12/22 02:04:10;;;;;;;33.15;17.35;;;-4.20;99.90;;;;;;4947404;28;20023;-79
2021/12/22 02:06:38;;;;;;;32.78;17.48;;;-4.20;99.90;;;;;;4967405;28;20039;-77
2021/12/22 02:09:04;;;;;;;31.70;18.23;;;-4.20;99.90;;;;;;4994893;28;20100;-78
2021/12/22 02:11:30;;;;;;;33.38;17.55;;;-4.20;99.90;;;;;;4994442;28;20027;-77
2021/12/22 02:14:02;;;;;;;35.25;18.25;;;-4.20;99.90;;;;;;4994794;28;20066;-78
2021/12/22 02:16:32;;;;;;;39.17;18.88;;;-4.30;99.90;;;;;;4963155;28;20086;-77
2021/12/22 02:19:01;;;;;;;40.15;20.48;;;-4.20;99.90;;;;;;4963625;28;20317;-78
2021/12/22 02:21:30;;;;;;;;;;;-4.20;99.90;;;;;;4963689;28;20035;-78
2021/12/22 02:23:56;;;;;;;37.10;19.20;;;-4.20;99.90;;;;;;4963405;28;20201;-78
2021/12/22 02:26:34;;;;;;;36.45;18.00;;;-4.30;99.90;;;;;;4995976;28;20098;-77
2021/12/22 02:29:04;;;;;;;;;;;-4.30;99.90;;;;;;4983704;28;20030;-77
2021/12/22 02:31:36;;;;;;;33.05;17.15;;;-4.40;99.90;;;;;;4982370;28;19917;-78
2021/12/22 02:34:02;;;;;;;42.50;19.77;;;-4.30;99.90;;;;;;4982745;28;20273;-79
2021/12/22 02:36:34;;;;;;;40.83;19.30;;;-4.40;99.90;;;;;;4981390;28;20042;-76
2021/12/22 02:39:01;;;;;;;37.83;18.42;;;-4.40;99.90;;;;;;4982830;28;20190;-77
2021/12/22 02:41:29;;;;;;;41.70;19.00;;;-4.40;99.90;;;;;;4997237;28;20090;-77
2021/12/22 02:43:58;;;;;;;44.95;19.15;;;-4.40;99.90;;;;;;4982510;28;20110;-78
2021/12/22 02:46:25;;;;;;;;;;;-4.40;99.90;;;;;;4982080;28;20081;-77
2021/12/22 02:48:52;;;;;;;38.33;19.98;;;-4.40;99.90;;;;;;4982067;28;19929;-76
2021/12/22 02:51:21;;;;;;;37.95;19.58;;;-4.40;99.90;;;;;;4997806;28;20038;-77
2021/12/22 02:54:06;;;;;;;36.65;19.10;;;-4.40;99.90;;;;;;4997066;28;20054;-77
2021/12/22 02:56:56;;;;;;;39.17;18.40;;;-4.50;99.90;;;;;;4982030;28;20035;-77
2021/12/22 03:02:34;;;;;;;46.75;21.00;;;-4.50;99.90;;;;;;4983473;28;20057;-80
2021/12/22 03:04:59;;;;;;;49.47;21.13;;;-4.40;99.90;;;;;;4984382;28;20043;-76
2021/12/22 03:07:29;;;;;;;44.13;20.13;;;-4.50;99.90;;;;;;4997444;28;20110;-76
2021/12/22 03:10:14;;;;;;;39.10;20.40;;;-4.50;99.90;;;;;;4984151;28;20035;-77
2021/12/22 03:12:40;;;;;;;36.45;19.35;;;-4.50;99.90;;;;;;4998710;28;20039;-77
2021/12/22 03:15:09;;;;;;;35.63;18.67;;;-4.50;99.90;;;;;;4983942;28;20055;-77
2021/12/22 03:17:37;;;;;;;34.33;19.05;;;-4.60;99.90;;;;;;4983759;28;20034;-77
2021/12/22 03:20:05;;;;;;;36.50;20.33;;;-4.60;99.90;;;;;;4984318;28;20102;-77
2021/12/22 03:22:30;;;;;;;26.85;15.07;;;-4.70;99.90;;;;;;4983686;28;20035;-76
2021/12/22 03:24:56;;;;;;;34.13;18.35;;;-4.80;99.90;;;;;;4999213;28;20078;-77
2021/12/22 03:27:24;;;;;;;34.90;18.67;;;-4.80;99.90;;;;;;4966220;28;20050;-78
2021/12/22 03:29:50;;;;;;;44.80;20.58;;;-4.90;99.90;;;;;;4952077;28;20019;-77
2021/12/22 03:32:16;;;;;;;44.45;20.13;;;-4.80;99.90;;;;;;4962858;29;20077;-77
2021/12/22 03:34:42;;;;;;;35.97;19.48;;;-4.70;99.90;;;;;;4962564;29;20031;-76
2021/12/22 03:37:10;;;;;;;47.42;20.38;;;-4.70;99.90;;;;;;4961900;28;20070;-79
2021/12/22 03:39:37;;;;;;;41.77;20.67;;;-4.70;99.90;;;;;;4962901;28;20031;-77
2021/12/22 03:42:06;;;;;;;42.10;19.90;;;-4.70;99.90;;;;;;4978048;28;20463;-77
2021/12/22 03:44:32;;;;;;;42.13;18.98;;;-4.80;99.90;;;;;;4960917;28;20031;-78
2021/12/22 03:47:00;;;;;;;38.50;19.42;;;-4.80;99.90;;;;;;4961671;28;20038;-77
2021/12/22 03:49:27;;;;;;;36.60;19.50;;;-4.80;99.90;;;;;;4962609;28;20093;-77
2021/12/22 03:51:53;;;;;;;31.02;17.95;;;-4.80;99.90;;;;;;4963988;28;20097;-77
2021/12/22 03:54:19;;;;;;;32.58;17.75;;;-4.70;99.90;;;;;;4964362;28;20043;-77
2021/12/22 03:56:45;;;;;;;41.70;18.55;;;-4.70;99.90;;;;;;4980971;28;20381;-77
2021/12/22 03:59:11;;;;;;;34.65;18.58;;;-4.80;99.90;;;;;;4981460;28;20038;-77
2021/12/22 04:01:37;;;;;;;34.80;18.35;;;-4.80;99.90;;;;;;4981013;28;20031;-77
2021/12/22 04:04:11;;;;;;;36.63;17.88;;;-4.70;99.90;;;;;;4981431;28;20064;-78
2021/12/22 04:06:38;;;;;;;35.67;19.17;;;-4.80;99.90;;;;;;4981278;28;20045;-77
2021/12/22 04:09:05;;;;;;;35.92;19.13;;;-4.80;99.90;;;;;;4981452;28;20029;-77
2021/12/22 04:11:30;;;;;;;35.40;19.15;;;-4.90;99.90;;;;;;4966800;28;20023;-77
2021/12/22 04:13:56;;;;;;;34.40;18.15;;;-4.90;99.90;;;;;;4961578;28;20326;-77
2021/12/22 04:16:22;;;;;;;35.53;17.90;;;-4.90;99.90;;;;;;4962045;28;20255;-78
2021/12/22 04:18:48;;;;;;;30.42;17.35;;;-5.00;99.90;;;;;;4960331;28;20027;-79
2021/12/22 04:21:14;;;;;;;32.92;17.85;;;-5.10;99.90;;;;;;4992900;28;20050;-77
2021/12/22 04:23:40;;;;;;;29.67;17.23;;;-5.00;99.90;;;;;;4961294;28;20101;-77
2021/12/22 04:26:05;;;;;;;34.83;18.83;;;-5.00;99.90;;;;;;4960879;28;20034;-78
2021/12/22 04:28:31;;;;;;;33.42;18.85;;;-5.00;99.90;;;;;;4993116;28;20078;-79
2021/12/22 04:30:57;;;;;;;35.20;18.08;;;-5.00;99.90;;;;;;4992414;28;20158;-77
2021/12/22 04:33:23;;;;;;;38.05;19.33;;;-5.00;99.90;;;;;;4977177;28;20098;-78
2021/12/22 04:35:50;;;;;;;31.77;18.00;;;-4.90;99.90;;;;;;4961087;29;20015;-78
2021/12/22 04:38:19;;;;;;;36.17;18.67;;;-5.00;99.90;;;;;;4961368;28;20093;-78
2021/12/22 04:40:45;;;;;;;32.05;17.70;;;-5.10;99.90;;;;;;4961099;29;20104;-77
2021/12/22 04:43:11;;;;;;;34.25;18.70;;;-5.00;99.90;;;;;;4961594;29;20048;-78
2021/12/22 04:45:37;;;;;;;40.08;18.95;;;-5.10;99.90;;;;;;4961142;28;20031;-77
2021/12/22 04:48:03;;;;;;;32.17;17.70;;;-5.20;99.90;;;;;;4961506;28;20050;-79
2021/12/22 04:50:31;;;;;;;35.45;18.88;;;-5.20;99.90;;;;;;4961671;29;20035;-77
2021/12/22 04:53:01;;;;;;;33.25;18.38;;;-5.20;99.90;;;;;;4994127;28;20386;-78
2021/12/22 04:55:28;;;;;;;34.35;18.73;;;-5.20;99.90;;;;;;4982248;28;20038;-78
2021/12/22 04:57:58;;;;;;;35.22;18.27;;;-5.10;99.90;;;;;;4981108;28;20047;-78
2021/12/22 05:00:29;;;;;;;32.97;17.55;;;-5.10;99.90;;;;;;4981730;28;20043;-76
2021/12/22 05:02:56;;;;;;;34.00;19.17;;;-5.10;99.90;;;;;;4974193;28;20049;-76
2021/12/22 05:05:22;;;;;;;36.28;18.85;;;-5.10;99.90;;;;;;4973911;28;20058;-76
2021/12/22 05:07:49;;;;;;;42.92;20.63;;;-5.20;99.90;;;;;;4964589;28;20034;-77
2021/12/22 05:10:16;;;;;;;35.90;19.92;;;-5.20;99.90;;;;;;4963706;28;20325;-78
2021/12/22 05:12:43;;;;;;;38.97;19.85;;;-5.20;99.90;;;;;;4978348;28;20031;-79
2021/12/22 05:15:10;;;;;;;36.00;19.58;;;-5.10;99.90;;;;;;4980438;28;20063;-78
2021/12/22 05:20:16;;;;;;;37.92;19.42;;;-5.20;99.90;;;;;;4980415;28;20053;-78
2021/12/22 05:22:42;;;;;;;;;;;-5.20;99.90;;;;;;4963253;28;20045;-77
2021/12/22 05:25:09;;;;;;;34.65;18.33;;;-5.20;99.90;;;;;;4980473;28;19902;-76
2021/12/22 05:27:36;;;;;;;31.60;17.65;;;-5.20;99.90;;;;;;4946921;28;20031;-79
2021/12/22 05:30:05;;;;;;;33.17;17.30;;;-5.20;99.90;;;;;;4980516;28;20316;-77
2021/12/22 05:32:32;;;;;;;32.03;17.27;;;-5.30;99.90;;;;;;4977664;28;20056;-78
2021/12/22 05:34:59;;;;;;;38.17;19.07;;;-5.40;99.90;;;;;;4994967;28;20049;-78
2021/12/22 05:37:25;;;;;;;32.40;17.83;;;-5.40;99.90;;;;;;4962989;28;20038;-77
2021/12/22 05:39:52;;;;;;;32.35;18.25;;;-5.30;99.90;;;;;;4979667;28;20102;-77
2021/12/22 05:42:19;;;;;;;35.42;18.30;;;-5.40;99.90;;;;;;4980227;28;20038;-78
2021/12/22 05:44:45;;;;;;;33.38;19.15;;;-5.40;99.90;;;;;;4962759;28;20042;-79
2021/12/22 05:47:11;;;;;;;32.22;17.60;;;-5.30;99.90;;;;;;4979098;28;20105;-79
2021/12/22 05:49:37;;;;;;;34.58;18.10;;;-5.30;99.90;;;;;;4958153;28;20035;-81
2021/12/22 05:52:03;;;;;;;33.35;17.15;;;-5.40;99.90;;;;;;4958919;29;20046;-79
2021/12/22 05:54:29;;;;;;;32.45;17.58;;;-5.40;99.90;;;;;;4956914;29;20050;-78
2021/12/22 05:56:55;;;;;;;32.38;18.10;;;-5.50;99.90;;;;;;4960457;29;20291;-78
2021/12/22 05:59:21;;;;;;;29.48;16.40;;;-5.40;99.90;;;;;;4960427;29;20099;-77
2021/12/22 06:01:47;;;;;;;27.92;15.75;;;-5.40;99.90;;;;;;4958536;28;20028;-77
2021/12/22 06:04:13;;;;;;;31.52;16.60;;;-5.40;99.90;;;;;;4966698;28;20042;-78
2021/12/22 06:06:38;;;;;;;32.72;17.65;;;-5.50;99.90;;;;;;4970694;28;20062;-79
2021/12/22 06:09:05;;;;;;;35.50;18.38;;;-5.50;99.90;;;;;;4977699;28;20035;-77
2021/12/22 06:11:31;;;;;;;34.15;18.17;;;-5.50;99.90;;;;;;4961419;28;20053;-79
2021/12/22 06:13:57;;;;;;;36.70;18.05;;;-5.30;99.90;;;;;;4960320;29;20169;-78
2021/12/22 06:16:24;;;;;;;32.80;16.95;;;-5.40;99.90;;;;;;4960643;28;20050;-77
2021/12/22 06:18:56;;;;;;;38.45;20.08;;;-5.40;99.90;;;;;;4969253;28;20038;-79
2021/12/22 06:21:22;;;;;;;35.92;18.38;;;-5.40;99.90;;;;;;4949138;28;20035;-77
2021/12/22 06:23:48;;;;;;;31.45;18.65;;;-5.30;99.90;;;;;;4963466;28;20032;-77
2021/12/22 06:26:14;;;;;;;36.45;19.17;;;-5.40;99.90;;;;;;4962114;29;20297;-78
2021/12/22 06:28:40;;;;;;;35.35;19.13;;;-5.40;99.90;;;;;;4963104;28;20034;-78
2021/12/22 06:31:06;;;;;;;38.65;20.27;;;-5.40;99.90;;;;;;4961441;28;20118;-77
2021/12/22 06:33:32;;;;;;;37.65;20.15;;;-5.20;99.90;;;;;;4946035;29;20046;-78
2021/12/22 06:35:58;;;;;;;39.05;19.75;;;-5.00;99.90;;;;;;4982687;28;20037;-77
2021/12/22 06:38:24;;;;;;;39.30;19.73;;;-5.00;99.90;;;;;;4982582;28;20085;-78
2021/12/22 06:40:50;;;;;;;38.63;19.23;;;-5.00;99.90;;;;;;4964790;28;20038;-77
2021/12/22 06:43:16;;;;;;;36.35;19.38;;;-5.10;99.90;;;;;;4982740;28;20026;-76
2021/12/22 06:45:42;;;;;;;35.53;18.42;;;-5.00;99.90;;;;;;4981613;28;20035;-78
2021/12/22 06:48:08;;;;;;;35.55;18.55;;;-5.10;99.90;;;;;;4965418;28;20062;-78
2021/12/22 06:50:34;;;;;;;33.60;17.85;;;-5.10;99.90;;;;;;4965605;28;20023;-78
2021/12/22 06:53:00;;;;;;;38.22;19.90;;;-5.10;99.90;;;;;;4981310;28;20475;-77
2021/12/22 06:55:26;;;;;;;37.88;18.38;;;-5.10;99.90;;;;;;4982126;28;20029;-78
2021/12/22 06:57:52;;;;;;;34.35;19.42;;;-5.20;99.90;;;;;;4964595;28;20109;-78
2021/12/22 07:00:18;;;;;;;38.60;19.27;;;-5.30;99.90;;;;;;4981955;28;20035;-77
2021/12/22 07:02:44;;;;;;;40.80;19.75;;;-5.40;99.90;;;;;;4964923;28;20098;-77
2021/12/22 07:05:20;;;;;;;35.58;18.70;;;-5.40;99.90;;;;;;4965327;28;20041;-79
2021/12/22 07:07:46;;;;;;;36.08;18.33;;;-5.30;99.90;;;;;;4964610;28;20042;-79
2021/12/22 07:10:12;;;;;;;37.80;18.92;;;-5.40;99.90;;;;;;5031953;28;20204;-79
2021/12/22 07:12:46;;;;;;;33.13;16.73;;;-5.30;99.90;;;;;;5066435;28;20031;-79
2021/12/22 07:15:14;;;;;;;38.75;19.25;;;-5.40;99.90;;;;;;5084333;28;20072;-78
2021/12/22 07:17:42;;;;;;;33.85;17.88;;;-5.40;99.90;;;;;;4989209;28;20035;-78
2021/12/22 07:20:09;;;;;;;38.90;20.48;;;-5.40;99.90;;;;;;4963256;29;20019;-78
2021/12/22 07:22:35;;;;;;;33.72;19.42;;;-5.30;99.90;;;;;;4945896;29;20106;-77
2021/12/22 07:25:01;;;;;;;34.88;18.25;;;-5.30;99.90;;;;;;4945167;28;20046;-78
2021/12/22 07:27:27;;;;;;;36.22;18.40;;;-5.30;99.90;;;;;;4962876;28;20023;-77
2021/12/22 07:29:53;;;;;;;35.88;18.00;;;-5.40;99.90;;;;;;4977522;28;20035;-78
2021/12/22 07:32:18;;;;;;;38.83;18.23;;;-5.40;99.90;;;;;;4961007;28;20063;-78
2021/12/22 07:34:56;;;;;;;34.83;18.60;;;-5.40;99.90;;;;;;4945234;28;20043;-79
2021/12/22 07:37:41;;;;;;;35.17;17.77;;;-5.40;99.90;;;;;;4931377;28;20061;-77
2021/12/22 07:40:11;;;;;;;38.75;18.17;;;-5.30;99.90;;;;;;4964336;28;20152;-78
2021/12/22 07:42:37;;;;;;;34.90;18.83;;;-5.30;99.90;;;;;;4965305;28;20056;-77
2021/12/22 07:45:05;;;;;;;51.72;22.58;;;-5.30;99.90;;;;;;4980483;28;20474;-78
2021/12/22 07:47:31;;;;;;;55.53;22.83;;;-5.20;99.90;;;;;;4964476;28;20030;-77
2021/12/22 07:49:57;;;;;;;54.95;23.08;;;-4.90;99.90;;;;;;4981711;28;20014;-78
2021/12/22 07:52:26;;;;;;;46.53;20.67;;;-5.00;99.90;;;;;;4982003;28;20161;-77
2021/12/22 07:54:52;;;;;;;37.30;19.52;;;-4.90;99.90;;;;;;4964629;28;20182;-78
2021/12/22 07:57:18;;;;;;;41.90;20.02;;;-4.90;99.90;;;;;;4981320;28;20058;-78
2021/12/22 07:59:44;;;;;;;36.70;19.35;;;-4.60;99.90;;;;;;4968744;28;20060;-77
2021/12/22 08:02:12;;;;;;;35.45;18.70;;;-4.50;99.90;;;;;;4965718;28;20264;-77
2021/12/22 08:04:41;;;;;;;37.63;19.08;;;-4.50;99.90;;;;;;4986085;28;20034;-77
2021/12/22 08:07:08;;;;;;;35.20;19.17;;;-4.40;99.90;;;;;;4981503;28;20034;-77
2021/12/22 08:09:35;;;;;;;40.05;19.67;;;-4.20;99.90;;;;;;5004279;28;20027;-76
2021/12/22 08:12:05;;;;;;;38.30;20.10;;;-4.10;99.90;;;;;;5082954;28;20058;-76
2021/12/22 08:14:39;;;;;;;38.20;19.77;;;-4.00;99.90;;;;;;5068771;28;20040;-77
2021/12/22 08:17:27;;;;;;;37.13;19.27;;;-4.00;99.90;;;;;;4983754;28;20359;-77
2021/12/22 08:19:54;;;;;;;37.53;18.95;;;-4.00;99.90;;;;;;4981536;28;20104;-77
2021/12/22 08:22:21;;;;;;;35.33;17.98;;;-4.00;99.90;;;;;;4986109;28;20026;-76
2021/12/22 08:24:46;;;;;;;38.38;19.70;;;-4.10;99.90;;;;;;4990720;28;20054;-79
2021/12/22 08:27:12;;;;;;;34.70;19.17;;;-4.00;99.90;;;;;;4976930;28;20084;-77
2021/12/22 08:29:42;;;;;;;38.70;20.48;;;-4.00;99.90;;;;;;4966595;28;20055;-78
2021/12/22 08:32:09;;;;;;;35.25;19.23;;;-4.10;99.90;;;;;;4979157;28;20039;-79
2021/12/22 08:34:39;;;;;;;38.70;19.67;;;-4.00;99.90;;;;;;4981165;28;20046;-79
2021/12/22 08:39:49;;;;;;;35.13;19.27;;;-3.90;99.90;;;;;;4981195;28;20030;-77
2021/12/22 08:42:16;;;;;;;39.60;20.80;;;-3.80;99.90;;;;;;4963719;28;20031;-78
2021/12/22 08:44:41;;;;;;;42.85;21.25;;;-3.80;99.90;;;;;;4981466;28;20019;-78
2021/12/22 08:47:08;;;;;;;41.35;22.05;;;-3.70;99.90;;;;;;4979811;28;20098;-78
2021/12/22 08:49:34;;;;;;;38.80;20.73;;;-3.70;99.90;;;;;;4980950;28;20305;-79
2021/12/22 08:52:01;;;;;;;43.58;22.70;;;-3.60;99.90;;;;;;4964428;28;20023;-78
2021/12/22 08:54:27;;;;;;;42.63;21.38;;;-3.50;99.90;;;;;;4981274;28;20110;-79
2021/12/22 08:56:55;;;;;;;39.17;20.83;;;-3.50;99.90;;;;;;4963155;28;20057;-79
2021/12/22 08:59:22;;;;;;;37.83;20.65;;;-3.40;99.90;;;;;;4980713;28;20030;-78
2021/12/22 09:01:49;;;;;;;36.63;20.23;;;-3.30;99.90;;;;;;4963101;28;20054;-80
2021/12/22 09:04:15;;;;;;;41.58;20.35;;;-3.30;99.90;;;;;;4980686;28;20019;-80
2021/12/22 09:06:42;;;;;;;37.97;20.67;;;-3.20;99.90;;;;;;4962811;28;20097;-78
2021/12/22 09:09:10;;;;;;;38.10;20.15;;;-3.10;99.90;;;;;;4978938;28;20098;-80
2021/12/22 09:11:37;;;;;;;;;;;-3.00;99.90;;;;;;4963765;28;20018;-80
2021/12/22 09:14:05;;;;;;;39.88;18.98;;;-2.90;99.90;;;;;;4980037;28;19920;-82
2021/12/22 09:16:33;;;;;;;;;;;-2.80;99.90;;;;;;4980607;28;20050;-79
2021/12/22 09:18:59;;;;;;;36.67;19.13;;;-2.80;99.90;;;;;;4994994;28;19933;-79
2021/12/22 09:21:28;;;;;;;43.78;21.10;;;-2.70;99.90;;;;;;4995014;28;20064;-79
2021/12/22 09:23:53;;;;;;;39.00;20.83;;;-2.60;99.90;;;;;;4980158;28;20025;-79
2021/12/22 09:26:23;;;;;;;35.42;19.50;;;-2.40;99.90;;;;;;4980392;28;20317;-79
2021/12/22 09:29:00;;;;;;;36.92;19.85;;;-2.30;99.90;;;;;;4977791;28;20121;-80
2021/12/22 09:31:35;;;;;;;37.05;19.33;;;-2.30;99.90;;;;;;4959847;28;20039;-79
2021/12/22 09:34:18;;;;;;;39.45;20.00;;;-2.00;99.90;;;;;;4960308;29;20314;-79
2021/12/22 09:36:47;;;;;;;36.70;19.27;;;-2.00;99.90;;;;;;4960928;28;20035;-78
2021/12/22 09:39:15;;;;;;;36.08;18.90;;;-2.00;99.90;;;;;;4935421;28;20039;-78
2021/12/22 09:41:41;;;;;;;37.40;20.63;;;-1.90;99.90;;;;;;4960860;28;20019;-78
2021/12/22 09:44:07;;;;;;;35.63;19.33;;;-2.00;99.90;;;;;;4943212;28;20314;-77
2021/12/22 09:46:35;;;;;;;33.92;18.60;;;-2.00;99.90;;;;;;4962440;28;20040;-79
2021/12/22 09:49:18;;;;;;;;;;;-1.90;99.90;;;;;;4964454;29;20270;-77
2021/12/22 09:54:29;;;;;;;38.25;19.80;;;-1.70;99.90;;;;;;4981217;28;20034;-79
2021/12/22 09:56:55;;;;;;;38.50;21.00;;;-1.60;99.90;;;;;;4965362;28;20347;-79
2021/12/22 09:59:21;;;;;;;38.92;21.75;;;-1.50;99.90;;;;;;4998476;28;20038;-79
2021/12/22 10:01:46;;;;;;;39.60;20.45;;;-1.40;99.90;;;;;;4983012;28;20054;-76
2021/12/22 10:04:16;;;;;;;40.85;22.52;;;-1.30;99.90;;;;;;4983240;28;20034;-79
2021/12/22 10:06:42;;;;;;;37.60;20.48;;;-1.20;99.90;;;;;;4983627;28;20033;-80
2021/12/22 10:09:08;;;;;;;40.60;21.00;;;-1.00;99.90;;;;;;4987838;28;20306;-79
2021/12/22 10:11:43;;;;;;;36.95;20.48;;;-0.90;99.90;;;;;;5085404;28;20072;-78
2021/12/22 10:14:19;;;;;;;38.97;20.73;;;-0.80;99.90;;;;;;5010892;28;20118;-80
2021/12/22 10:16:48;;;;;;;38.55;19.65;;;-0.60;99.90;;;;;;4988608;28;20050;-78
2021/12/22 10:19:14;;;;;;;36.15;20.05;;;-0.60;99.90;;;;;;4978557;28;20039;-80
2021/12/22 10:21:56;;;;;;;35.92;20.88;;;-0.50;99.90;;;;;;4946712;29;20169;-77
2021/12/22 10:24:34;;;;;;;41.15;21.05;;;-0.40;99.90;;;;;;4962535;28;20310;-78
2021/12/22 10:27:10;;;;;;;46.75;21.85;;;-0.30;99.90;;;;;;4946502;28;20039;-80
2021/12/22 10:29:36;;;;;;;35.85;19.83;;;-0.30;99.90;;;;;;4978579;28;20194;-78
2021/12/22 10:32:16;;;;;;;36.20;19.20;;;-0.10;99.90;;;;;;4980164;28;20038;-79
2021/12/22 10:35:01;;;;;;;38.15;20.00;;;0.00;99.90;;;;;;4958421;28;20058;-78
2021/12/22 10:37:33;;;;;;;31.10;18.05;;;0.30;99.90;;;;;;4982845;28;20043;-79
2021/12/22 10:39:59;;;;;;;32.05;18.45;;;0.60;99.90;;;;;;4982397;28;20038;-79
2021/12/22 10:42:40;;;;;;;33.65;18.30;;;1.00;99.90;;;;;;4982027;28;20023;-79
2021/12/22 10:45:15;;;;;;;28.73;17.65;;;1.30;99.90;;;;;;4978640;28;20144;-80
2021/12/22 10:50:37;;;;;;;30.10;17.58;;;2.00;99.90;;;;;;4982152;28;20037;-78
2021/12/22 10:53:03;;;;;;;29.83;16.67;;;2.90;99.90;;;;;;4988996;28;20269;-79
2021/12/22 10:55:47;;;;;;;25.88;15.88;;;3.20;99.90;;;;;;4981986;28;20022;-79
2021/12/22 10:58:34;;;;;;;21.92;13.50;;;3.80;99.90;;;;;;4978429;28;20042;-79
2021/12/22 11:01:13;;;;;;;23.30;14.80;;;4.10;99.90;;;;;;4971646;28;20332;-80
2021/12/22 11:03:53;;;;;;;25.13;14.57;;;4.70;99.90;;;;;;4980954;28;20030;-78
2021/12/22 11:06:24;;;;;;;24.30;16.00;;;4.80;99.90;;;;;;4981370;28;20031;-77
2021/12/22 11:09:10;;;;;;;22.77;15.00;;;5.20;99.90;;;;;;4981560;28;20057;-79
2021/12/22 11:11:49;;;;;;;24.17;15.32;;;5.20;99.90;;;;;;4963764;29;20031;-77
2021/12/22 11:14:19;;;;;;;22.48;14.55;;;5.70;99.90;;;;;;4980502;28;20301;-77
2021/12/22 11:17:06;;;;;;;23.58;14.30;;;6.40;99.90;;;;;;4977955;28;20293;-79
2021/12/22 11:19:57;;;;;;;20.98;15.00;;;6.60;99.90;;;;;;4965312;28;20230;-80
2021/12/22 11:22:53;;;;;;;19.52;13.77;;;6.80;99.50;;;;;;4982223;28;20114;-78
2021/12/22 11:25:29;;;;;;;24.30;15.98;;;7.30;99.10;;;;;;4997255;28;20026;-76
2021/12/22 11:28:21;;;;;;;17.15;13.35;;;7.90;98.30;;;;;;4980954;28;20041;-80
2021/12/22 11:30:47;;;;;;;20.73;13.57;;;8.50;96.90;;;;;;4969408;28;20253;-77
2021/12/22 11:33:12;;;;;;;18.17;13.57;;;8.90;95.80;;;;;;4969676;28;20027;-80
2021/12/22 11:35:41;;;;;;;20.08;13.73;;;8.50;95.40;;;;;;4981195;28;20038;-78
2021/12/22 11:38:08;;;;;;;19.15;13.32;;;8.20;95.00;;;;;;5055481;28;20085;-78
2021/12/22 11:40:34;;;;;;;18.95;14.13;;;8.50;95.40;;;;;;5050999;28;20032;-79
2021/12/22 11:43:00;;;;;;;17.63;13.63;;;8.20;94.80;;;;;;4981771;28;20022;-80
2021/12/22 11:45:26;;;;;;;19.27;14.18;;;8.00;95.20;;;;;;5054583;28;20218;-78
2021/12/22 11:47:56;;;;;;;17.27;13.52;;;7.90;95.30;;;;;;5001143;28;20052;-79
2021/12/22 11:50:37;;;;;;;18.63;13.85;;;7.80;95.10;;;;;;5065804;28;20028;-78
2021/12/22 11:53:08;;;;;;;17.27;12.85;;;7.90;95.50;;;;;;5068360;28;20029;-78
2021/12/22 11:55:43;;;;;;;17.50;12.68;;;7.90;95.20;;;;;;5070709;28;20055;-77
2021/12/22 11:58:21;;;;;;;20.23;13.35;;;9.20;94.30;;;;;;4977221;28;20050;-77
2021/12/22 12:00:59;;;;;;;17.15;11.70;;;9.50;93.30;;;;;;4981647;28;20043;-79
2021/12/22 12:03:40;;;;;;;17.73;13.63;;;10.00;92.60;;;;;;5024398;28;20033;-78
2021/12/22 12:06:47;;;;;;;17.70;13.15;;;9.80;91.70;;;;;;5064403;28;20223;-79
2021/12/22 12:09:13;;;;;;;16.38;12.77;;;10.00;91.50;;;;;;5024101;28;20043;-78
2021/12/22 12:11:56;;;;;;;18.23;13.48;;;9.90;91.40;;;;;;5063241;28;20043;-80
2021/12/22 12:14:36;;;;;;;16.75;12.63;;;9.50;91.30;;;;;;5005923;28;20067;-78
2021/12/22 12:23:27;;;;;;;15.23;12.18;;;10.90;89.50;;;;;;4980841;28;20031;-78
2021/12/22 12:25:58;;;;;;;14.90;12.07;;;10.60;89.40;;;;;;4981064;28;20096;-80
2021/12/22 12:28:25;;;;;;;15.15;12.43;;;11.00;88.10;;;;;;4963948;28;20053;-78
2021/12/22 12:30:53;;;;;;;18.20;13.77;;;11.10;88.70;;;;;;4978723;28;20038;-81
2021/12/22 12:33:45;;;;;;;18.30;13.77;;;10.90;88.00;;;;;;4989110;28;20035;-78
2021/12/22 12:36:16;;;;;;;16.95;12.82;;;11.00;87.50;;;;;;4980585;28;20068;-81
2021/12/22 12:38:48;;;;;;;17.65;13.70;;;10.20;88.80;;;;;;4981176;28;20252;-81
2021/12/22 12:41:19;;;;;;;19.40;13.73;;;10.10;89.50;;;;;;4963267;28;20037;-82
2021/12/22 12:43:56;;;;;;;20.17;13.30;;;9.60;90.00;;;;;;4963785;28;20027;-80
2021/12/22 12:46:47;;;;;;;16.88;13.45;;;9.80;90.20;;;;;;4975613;28;20140;-81
2021/12/22 12:49:21;;;;;;;17.50;12.55;;;9.80;90.10;;;;;;4959832;28;20027;-82
2021/12/22 12:51:50;;;;;;;17.45;12.50;;;10.30;90.10;;;;;;4973428;28;20031;-80
2021/12/22 13:01:58;;;;;;;17.20;12.60;;;8.00;91.60;;;;;;4937418;28;20004;-79
2021/12/22 13:04:36;;;;;;;18.33;12.85;;;7.90;92.40;;;;;;5041441;28;20238;-79
2021/12/22 13:07:28;;;;;;;18.42;12.52;;;8.60;91.90;;;;;;5054141;28;20236;-78
2021/12/22 13:10:02;;;;;;;17.23;12.18;;;8.50;91.00;;;;;;5049392;28;20323;-79
2021/12/22 13:12:47;;;;;;;17.00;12.13;;;8.10;91.60;;;;;;5060280;28;20238;-80